createdAt,value
2018-09-20T00:00:19.419Z,16.60
2018-09-20T00:02:50.632Z,18.00
2018-09-20T00:05:21.782Z,15.77
2018-09-20T00:07:53.143Z,16.03
2018-09-20T00:10:24.395Z,16.07
2018-09-20T00:12:55.787Z,17.13
2018-09-20T00:15:27.604Z,13.63
2018-09-20T00:17:58.914Z,18.40
2018-09-20T00:20:29.910Z,17.23
2018-09-20T00:23:01.065Z,16.60
2018-09-20T00:25:32.327Z,19.67
2018-09-20T00:28:03.523Z,14.97
2018-09-20T00:30:35.393Z,17.97
2018-09-20T00:33:06.493Z,17.87
2018-09-20T00:35:37.823Z,20.93
2018-09-20T00:38:09.023Z,21.43
2018-09-20T00:40:40.029Z,16.83
2018-09-20T00:43:11.516Z,19.43
2018-09-20T00:45:43.095Z,17.73
2018-09-20T00:48:14.383Z,15.93
2018-09-20T00:50:45.563Z,13.90
2018-09-20T00:53:16.773Z,18.10
2018-09-20T00:55:47.959Z,15.33
2018-09-20T00:58:19.164Z,17.73
2018-09-20T01:00:50.159Z,18.13
2018-09-20T01:03:21.937Z,17.07
2018-09-20T01:05:53.124Z,19.33
2018-09-20T01:08:24.499Z,17.10
2018-09-20T01:10:56.763Z,17.80
2018-09-20T01:13:27.955Z,16.07
2018-09-20T01:15:59.725Z,16.60
2018-09-20T01:18:30.828Z,17.87
2018-09-20T01:21:02.081Z,17.23
2018-09-20T01:23:33.474Z,17.07
2018-09-20T01:26:04.859Z,15.97
2018-09-20T01:28:36.208Z,15.30
2018-09-20T01:31:07.399Z,17.83
2018-09-20T01:33:38.876Z,17.23
2018-09-20T01:36:10.047Z,18.03
2018-09-20T01:38:41.414Z,14.10
2018-09-20T01:41:12.542Z,16.17
2018-09-20T01:43:44.039Z,20.43
2018-09-20T01:46:15.158Z,15.33
2018-09-20T01:48:47.317Z,13.93
2018-09-20T01:51:18.501Z,16.27
2018-09-20T01:53:49.924Z,19.17
2018-09-20T01:56:21.556Z,14.23
2018-09-20T01:58:52.672Z,15.23
2018-09-20T02:01:23.843Z,17.13
2018-09-20T02:03:55.059Z,16.00
2018-09-20T02:06:26.134Z,16.17
2018-09-20T02:08:57.243Z,19.17
2018-09-20T02:11:28.523Z,15.63
2018-09-20T02:13:59.819Z,17.70
2018-09-20T02:16:30.876Z,16.07
2018-09-20T02:19:02.222Z,17.30
2018-09-20T02:21:33.381Z,16.50
2018-09-20T02:24:04.383Z,17.17
2018-09-20T02:26:35.556Z,14.83
2018-09-20T02:29:06.578Z,15.13
2018-09-20T02:31:37.676Z,17.13
2018-09-20T02:34:08.784Z,20.23
2018-09-20T02:36:40.260Z,15.33
2018-09-20T02:39:11.381Z,17.47
2018-09-20T02:41:42.530Z,16.97
2018-09-20T02:44:14.018Z,15.30
2018-09-20T02:46:45.171Z,16.37
2018-09-20T02:49:16.469Z,17.67
2018-09-20T02:51:47.671Z,16.30
2018-09-20T02:54:18.859Z,15.83
2018-09-20T02:56:50.044Z,17.93
2018-09-20T02:59:21.287Z,17.83
2018-09-20T03:01:52.479Z,17.37
2018-09-20T03:04:23.863Z,20.03
2018-09-20T03:06:55.915Z,15.90
2018-09-20T03:09:27.204Z,18.40
2018-09-20T03:11:58.428Z,15.87
2018-09-20T03:14:29.378Z,16.37
2018-09-20T03:17:01.176Z,18.33
2018-09-20T03:19:32.383Z,17.87
2018-09-20T03:22:04.103Z,16.47
2018-09-20T03:24:35.352Z,15.87
2018-09-20T03:27:06.394Z,14.73
2018-09-20T03:29:38.002Z,15.97
2018-09-20T03:32:09.335Z,17.20
2018-09-20T03:34:40.751Z,18.70
2018-09-20T03:37:11.935Z,15.47
2018-09-20T03:39:43.284Z,17.17
2018-09-20T03:42:14.487Z,19.30
2018-09-20T03:44:45.477Z,16.57
2018-09-20T03:47:16.711Z,16.93
2018-09-20T03:49:48.642Z,15.30
2018-09-20T03:52:19.816Z,14.70
2018-09-20T03:54:51.031Z,16.97
2018-09-20T03:57:22.516Z,16.83
2018-09-20T03:59:53.833Z,16.13
2018-09-20T04:02:25.795Z,16.20
2018-09-20T04:04:56.990Z,18.77
2018-09-20T04:07:28.695Z,16.33
2018-09-20T04:09:59.941Z,16.50
2018-09-20T04:12:31.391Z,16.87
2018-09-20T04:15:02.543Z,16.93
2018-09-20T04:17:33.904Z,16.53
2018-09-20T04:20:05.371Z,18.53
2018-09-20T04:22:37.151Z,18.57
2018-09-20T04:25:08.282Z,18.43
2018-09-20T04:27:39.251Z,17.33
2018-09-20T04:30:10.592Z,14.23
2018-09-20T04:32:42.066Z,16.60
2018-09-20T04:35:13.467Z,19.63
2018-09-20T04:37:44.840Z,22.43
2018-09-20T04:40:16.025Z,17.83
2018-09-20T04:42:47.307Z,17.20
2018-09-20T04:45:18.398Z,20.67
2018-09-20T04:47:49.398Z,15.50
2018-09-20T04:50:20.379Z,18.30
2018-09-20T04:52:51.375Z,17.77
2018-09-20T04:55:22.583Z,23.03
2018-09-20T04:57:53.811Z,19.27
2018-09-20T05:00:24.956Z,18.57
2018-09-20T05:02:56.462Z,18.47
2018-09-20T05:05:27.707Z,19.83
2018-09-20T05:07:58.853Z,21.67
2018-09-20T05:10:30.099Z,18.53
2018-09-20T05:13:02.065Z,21.30
2018-09-20T05:15:33.070Z,26.90
2018-09-20T05:18:04.518Z,22.50
2018-09-20T05:20:35.872Z,22.30
2018-09-20T05:23:06.855Z,21.40
2018-09-20T05:25:38.017Z,19.27
2018-09-20T05:28:10.113Z,23.07
2018-09-20T05:30:41.211Z,34.47
2018-09-20T05:33:12.447Z,46.87
2018-09-20T05:35:43.963Z,52.40
2018-09-20T05:38:15.062Z,54.33
2018-09-20T05:40:46.658Z,41.43
2018-09-20T05:43:17.968Z,39.10
2018-09-20T05:45:49.187Z,44.67
2018-09-20T05:48:20.543Z,40.57
2018-09-20T05:50:51.556Z,30.87
2018-09-20T05:53:22.722Z,32.73
2018-09-20T05:55:53.915Z,33.80
2018-09-20T05:58:25.119Z,31.73
2018-09-20T06:00:56.319Z,23.90
2018-09-20T06:03:27.300Z,31.40
2018-09-20T06:05:58.403Z,28.10
2018-09-20T06:08:29.999Z,31.23
2018-09-20T06:11:01.255Z,27.27
2018-09-20T06:13:32.643Z,29.10
2018-09-20T06:16:03.858Z,30.23
2018-09-20T06:18:34.845Z,30.73
2018-09-20T06:21:06.032Z,29.23
2018-09-20T06:23:37.191Z,24.20
2018-09-20T06:26:08.435Z,31.67
2018-09-20T06:28:39.826Z,24.67
2018-09-20T06:31:10.818Z,24.47
2018-09-20T06:33:42.016Z,21.80
2018-09-20T06:36:13.467Z,22.83
2018-09-20T06:38:44.608Z,24.80
2018-09-20T06:41:15.979Z,26.27
2018-09-20T06:43:48.340Z,24.87
2018-09-20T06:46:19.531Z,22.83
2018-09-20T06:48:50.924Z,20.13
2018-09-20T06:51:21.907Z,21.30
2018-09-20T06:53:52.910Z,22.93
2018-09-20T06:56:24.319Z,25.77
2018-09-20T06:58:55.661Z,23.63
2018-09-20T07:01:26.892Z,22.33
2018-09-20T07:03:58.067Z,27.27
2018-09-20T07:06:29.358Z,29.43
2018-09-20T07:09:00.448Z,26.63
2018-09-20T07:11:31.641Z,27.03
2018-09-20T07:14:03.128Z,25.23
2018-09-20T07:16:34.475Z,23.20
2018-09-20T07:19:05.925Z,22.33
2018-09-20T07:21:36.978Z,23.27
2018-09-20T07:24:08.028Z,20.47
2018-09-20T07:26:39.355Z,20.57
2018-09-20T07:29:11.386Z,22.90
2018-09-20T07:31:42.617Z,20.70
2018-09-20T07:34:14.066Z,21.43
2018-09-20T07:36:45.331Z,23.00
2018-09-20T07:39:16.718Z,22.87
2018-09-20T07:41:48.101Z,24.87
2018-09-20T07:44:19.280Z,23.17
2018-09-20T07:46:50.299Z,23.90
2018-09-20T07:49:21.507Z,24.20
2018-09-20T07:51:52.968Z,25.50
2018-09-20T07:54:24.723Z,22.33
2018-09-20T07:56:55.855Z,26.77
2018-09-20T07:59:27.409Z,23.33
2018-09-20T08:01:58.502Z,24.70
2018-09-20T08:04:29.596Z,24.60
2018-09-20T08:07:00.648Z,23.23
2018-09-20T08:09:32.054Z,20.27
2018-09-20T08:12:03.446Z,20.73
2018-09-20T08:14:34.903Z,21.50
2018-09-20T08:17:05.976Z,21.27
2018-09-20T08:19:37.018Z,22.03
2018-09-20T08:22:08.216Z,20.30
2018-09-20T08:24:39.778Z,20.37
2018-09-20T08:27:11.148Z,21.20
2018-09-20T08:29:42.368Z,19.70
2018-09-20T08:32:13.568Z,24.57
2018-09-20T08:34:44.930Z,15.83
2018-09-20T08:37:16.147Z,20.83
2018-09-20T08:39:47.454Z,19.03
2018-09-20T08:42:18.723Z,22.37
2018-09-20T08:44:50.048Z,18.77
2018-09-20T08:47:21.257Z,17.30
2018-09-20T08:49:52.236Z,16.50
2018-09-20T08:52:23.744Z,24.53
2018-09-20T08:54:55.287Z,16.23
2018-09-20T08:57:26.636Z,18.97
2018-09-20T08:59:57.796Z,18.33
2018-09-20T09:02:29.005Z,15.90
2018-09-20T09:05:00.359Z,14.93
2018-09-20T09:07:31.536Z,16.10
2018-09-20T09:10:02.789Z,18.90
2018-09-20T09:12:34.167Z,15.77
2018-09-20T09:15:05.583Z,15.13
2018-09-20T09:17:36.932Z,21.77
2018-09-20T09:20:08.420Z,17.13
2018-09-20T09:22:39.770Z,24.83
2018-09-20T09:25:11.090Z,21.37
2018-09-20T09:27:42.056Z,18.93
2018-09-20T09:30:13.103Z,16.90
2018-09-20T09:32:44.260Z,18.13
2018-09-20T09:35:15.507Z,14.07
2018-09-20T09:37:46.635Z,16.93
2018-09-20T09:40:17.845Z,16.33
2018-09-20T09:42:49.023Z,18.73
2018-09-20T09:45:20.236Z,16.03
2018-09-20T09:47:51.231Z,12.27
2018-09-20T09:50:22.424Z,16.97
2018-09-20T09:52:53.959Z,16.27
2018-09-20T09:55:25.685Z,17.90
2018-09-20T09:57:57.239Z,15.07
2018-09-20T10:00:35.631Z,19.23
2018-09-20T10:03:07.312Z,19.33
2018-09-20T10:05:38.896Z,22.33
2018-09-20T10:08:10.422Z,18.97
2018-09-20T10:10:41.811Z,18.13
2018-09-20T10:13:13.212Z,19.93
2018-09-20T10:15:45.039Z,24.03
2018-09-20T10:18:16.322Z,24.73
2018-09-20T10:20:47.555Z,15.63
2018-09-20T10:23:18.874Z,13.20
2018-09-20T10:25:50.119Z,14.93
2018-09-20T10:28:21.506Z,15.87
2018-09-20T10:30:53.020Z,17.55
2018-09-20T10:33:24.095Z,16.52
2018-09-20T10:35:55.559Z,14.40
2018-09-20T10:38:27.323Z,12.45
2018-09-20T10:40:58.629Z,16.37
2018-09-20T10:43:29.796Z,18.80
2018-09-20T10:46:01.044Z,15.70
2018-09-20T10:48:32.704Z,14.95
2018-09-20T10:51:03.844Z,17.65
2018-09-20T10:53:35.568Z,12.30
2018-09-20T10:56:06.971Z,13.95
2018-09-20T10:58:37.997Z,13.32
2018-09-20T11:01:09.404Z,12.88
2018-09-20T11:03:40.752Z,15.40
2018-09-20T11:06:12.140Z,13.55
2018-09-20T11:08:43.334Z,11.73
2018-09-20T11:11:14.699Z,12.88
2018-09-20T11:13:46.298Z,12.53
2018-09-20T11:16:17.304Z,12.43
2018-09-20T11:18:48.488Z,11.25
2018-09-20T11:21:19.531Z,11.05
2018-09-20T11:23:50.832Z,12.82
2018-09-20T11:26:22.040Z,10.70
2018-09-20T11:28:53.051Z,10.98
2018-09-20T11:31:24.405Z,8.63
2018-09-20T11:33:55.649Z,11.73
2018-09-20T11:36:27.063Z,12.35
2018-09-20T11:38:58.862Z,10.55
2018-09-20T11:41:30.463Z,15.90
2018-09-20T11:44:01.679Z,10.13
2018-09-20T11:46:32.929Z,11.48
2018-09-20T11:49:04.151Z,11.63
2018-09-20T11:51:35.512Z,11.33
2018-09-20T11:54:06.813Z,12.10
2018-09-20T11:56:38.716Z,12.55
2018-09-20T11:59:09.904Z,10.70
2018-09-20T12:01:41.074Z,11.18
2018-09-20T12:04:12.529Z,10.28
2018-09-20T12:06:44.361Z,11.53
2018-09-20T12:09:15.452Z,11.05
2018-09-20T12:11:46.659Z,27.58
2018-09-20T12:14:18.315Z,10.88
2018-09-20T12:16:49.606Z,12.53
2018-09-20T12:19:20.971Z,11.35
2018-09-20T12:21:52.223Z,12.65
2018-09-20T12:24:23.547Z,8.65
2018-09-20T12:26:54.791Z,9.73
2018-09-20T12:29:25.955Z,11.60
2018-09-20T12:31:57.028Z,11.03
2018-09-20T12:34:28.190Z,9.08
2018-09-20T12:36:59.335Z,8.25
2018-09-20T12:39:30.581Z,10.43
2018-09-20T12:42:01.929Z,8.10
2018-09-20T12:44:33.238Z,10.72
2018-09-20T12:47:04.508Z,11.88
2018-09-20T12:49:35.503Z,9.38
2018-09-20T12:52:06.538Z,9.65
2018-09-20T12:54:37.745Z,11.35
2018-09-20T12:57:08.892Z,8.55
2018-09-20T12:59:40.739Z,8.38
2018-09-20T13:02:12.077Z,8.78
2018-09-20T13:04:43.415Z,7.47
2018-09-20T13:07:14.631Z,7.22
2018-09-20T13:09:46.150Z,7.12
2018-09-20T13:12:17.692Z,9.98
2018-09-20T13:14:48.993Z,10.13
2018-09-20T13:17:20.664Z,7.97
2018-09-20T13:19:51.976Z,9.60
2018-09-20T13:22:23.339Z,8.38
2018-09-20T13:24:54.331Z,9.58
2018-09-20T13:27:25.363Z,21.82
2018-09-20T13:29:56.876Z,7.05
2018-09-20T13:32:28.788Z,5.97
2018-09-20T13:35:00.087Z,9.70
2018-09-20T13:37:31.296Z,6.20
2018-09-20T13:40:03.342Z,8.10
2018-09-20T13:42:34.956Z,7.75
2018-09-20T13:45:06.728Z,6.78
2018-09-20T13:47:38.815Z,8.65
2018-09-20T13:50:09.920Z,9.33
2018-09-20T13:52:41.478Z,7.58
2018-09-20T13:55:12.772Z,8.63
2018-09-20T13:57:43.777Z,9.55
2018-09-20T14:00:15.217Z,6.62
2018-09-20T14:02:46.325Z,7.33
2018-09-20T14:05:17.569Z,9.53
2018-09-20T14:07:48.918Z,7.75
2018-09-20T14:10:20.164Z,9.40
2018-09-20T14:12:51.305Z,7.00
2018-09-20T14:15:22.824Z,8.95
2018-09-20T14:17:53.955Z,7.22
2018-09-20T14:20:25.086Z,9.10
2018-09-20T14:22:56.810Z,6.45
2018-09-20T14:25:28.344Z,9.58
2018-09-20T14:27:59.437Z,7.00
2018-09-20T14:30:30.499Z,7.60
2018-09-20T14:33:01.890Z,7.42
2018-09-20T14:35:33.034Z,7.95
2018-09-20T14:38:04.884Z,6.80
2018-09-20T14:40:36.257Z,9.23
2018-09-20T14:43:08.248Z,7.37
2018-09-20T14:45:39.604Z,5.47
2018-09-20T14:48:11.252Z,6.28
2018-09-20T14:50:42.344Z,6.40
2018-09-20T14:53:13.719Z,7.58
2018-09-20T14:55:45.158Z,8.13
2018-09-20T14:58:16.616Z,8.00
2018-09-20T15:00:48.304Z,6.75
2018-09-20T15:03:20.065Z,7.97
2018-09-20T15:05:51.310Z,5.50
2018-09-20T15:08:22.664Z,6.20
2018-09-20T15:10:54.316Z,5.80
2018-09-20T15:13:25.630Z,7.83
2018-09-20T15:15:56.812Z,4.72
2018-09-20T15:18:27.971Z,5.92
2018-09-20T15:20:59.198Z,7.12
2018-09-20T15:23:30.415Z,5.30
2018-09-20T15:26:01.692Z,6.05
2018-09-20T15:28:32.951Z,6.12
2018-09-20T15:31:04.187Z,7.85
2018-09-20T15:33:35.582Z,5.35
2018-09-20T15:36:06.902Z,9.65
2018-09-20T15:38:37.946Z,7.67
2018-09-20T15:41:09.855Z,5.53
2018-09-20T15:43:41.387Z,6.42
2018-09-20T15:46:12.487Z,8.65
2018-09-20T15:48:43.682Z,8.10
2018-09-20T15:51:15.047Z,8.13
2018-09-20T15:53:46.496Z,6.53
2018-09-20T15:56:17.643Z,5.85
2018-09-20T15:58:48.819Z,5.58
2018-09-20T16:01:21.075Z,6.12
2018-09-20T16:03:52.403Z,7.28
2018-09-20T16:06:23.532Z,4.67
2018-09-20T16:08:54.593Z,5.03
2018-09-20T16:11:25.923Z,5.42
2018-09-20T16:13:57.013Z,4.50
2018-09-20T16:16:28.567Z,7.65
2018-09-20T16:18:59.735Z,6.67
2018-09-20T16:21:32.147Z,6.72
2018-09-20T16:24:03.320Z,7.87
2018-09-20T16:26:34.679Z,4.72
2018-09-20T16:29:42.143Z,6.75
2018-09-20T16:33:03.198Z,8.15
2018-09-20T16:35:50.837Z,6.92
2018-09-20T16:38:41.832Z,4.40
2018-09-20T16:41:17.032Z,4.77
2018-09-20T16:43:48.386Z,7.85
2018-09-20T16:46:19.635Z,6.97
2018-09-20T16:48:50.844Z,4.35
2018-09-20T16:51:22.331Z,5.30
2018-09-20T16:53:53.681Z,7.67
2018-09-20T16:56:25.011Z,5.95
2018-09-20T16:58:56.432Z,6.53
2018-09-20T17:01:27.760Z,6.17
2018-09-20T17:03:58.972Z,11.25
2018-09-20T17:06:29.972Z,7.50
2018-09-20T17:09:00.990Z,7.33
2018-09-20T17:11:32.353Z,11.00
2018-09-20T17:14:03.482Z,8.67
2018-09-20T17:16:34.847Z,11.63
2018-09-20T17:19:06.041Z,5.30
2018-09-20T17:21:37.330Z,7.73
2018-09-20T17:24:08.466Z,9.03
2018-09-20T17:26:39.678Z,6.23
2018-09-20T17:29:10.672Z,5.07
2018-09-20T17:31:41.866Z,6.37
2018-09-20T17:34:12.905Z,5.27
2018-09-20T17:36:45.995Z,4.53
2018-09-20T17:39:18.915Z,6.47
2018-09-20T17:41:52.020Z,4.77
2018-09-20T17:44:23.171Z,8.30
2018-09-20T17:46:54.360Z,5.47
2018-09-20T17:49:25.336Z,7.80
2018-09-20T17:51:56.993Z,8.30
2018-09-20T17:54:29.075Z,5.93
2018-09-20T17:57:01.803Z,8.37
2018-09-20T17:59:33.457Z,10.60
2018-09-20T18:02:04.709Z,8.03
2018-09-20T18:04:35.807Z,9.63
2018-09-20T18:07:07.055Z,8.63
2018-09-20T18:09:38.427Z,7.30
2018-09-20T18:12:09.439Z,5.63
2018-09-20T18:14:40.835Z,9.93
2018-09-20T18:17:12.223Z,7.97
2018-09-20T18:19:43.362Z,8.50
2018-09-20T18:22:14.560Z,9.63
2018-09-20T18:24:45.780Z,7.70
2018-09-20T18:27:17.105Z,9.97
2018-09-20T18:29:48.527Z,11.33
2018-09-20T18:32:19.699Z,13.30
2018-09-20T18:34:50.951Z,12.00
2018-09-20T18:37:22.603Z,8.43
2018-09-20T18:39:53.863Z,8.50
2018-09-20T18:42:25.665Z,8.93
2018-09-20T18:44:56.976Z,13.33
2018-09-20T18:47:28.479Z,13.83
2018-09-20T18:49:59.698Z,12.73
2018-09-20T18:52:30.819Z,15.10
2018-09-20T18:55:02.044Z,9.30
2018-09-20T18:57:33.698Z,10.60
2018-09-20T19:00:05.192Z,10.50
2018-09-20T19:02:36.398Z,10.40
2018-09-20T19:05:07.648Z,9.57
2018-09-20T19:07:39.231Z,10.17
2018-09-20T19:10:10.547Z,12.50
2018-09-20T19:12:41.515Z,8.60
2018-09-20T19:15:13.395Z,8.27
2018-09-20T19:17:44.698Z,8.80
2018-09-20T19:20:15.908Z,10.43
2018-09-20T19:22:47.375Z,11.43
2018-09-20T19:25:18.792Z,15.90
2018-09-20T19:27:50.058Z,11.03
2018-09-20T19:30:21.439Z,9.97
2018-09-20T19:32:52.651Z,13.37
2018-09-20T19:35:23.883Z,9.03
2018-09-20T19:37:55.204Z,13.30
2018-09-20T19:40:26.223Z,10.77
2018-09-20T19:42:57.434Z,12.90
2018-09-20T19:45:28.696Z,17.77
2018-09-20T19:47:59.761Z,13.90
2018-09-20T19:50:30.802Z,11.47
2018-09-20T19:53:02.256Z,15.77
2018-09-20T19:55:33.567Z,15.83
2018-09-20T19:58:04.554Z,15.73
2018-09-20T20:00:36.424Z,14.50
2018-09-20T20:03:07.851Z,13.83
2018-09-20T20:05:39.520Z,12.90
2018-09-20T20:08:10.753Z,14.30
2018-09-20T20:10:42.163Z,13.83
2018-09-20T20:13:13.260Z,15.63
2018-09-20T20:15:44.555Z,13.57
2018-09-20T20:18:15.859Z,13.33
2018-09-20T20:20:47.053Z,15.83
2018-09-20T20:23:18.232Z,10.03
2018-09-20T20:25:49.427Z,9.50
2018-09-20T20:28:20.916Z,10.87
2018-09-20T20:30:52.242Z,9.17
2018-09-20T20:33:23.418Z,8.87
2018-09-20T20:35:54.787Z,13.73
2018-09-20T20:38:25.817Z,8.23
2018-09-20T20:40:57.159Z,9.57
2018-09-20T20:43:28.374Z,9.40
2018-09-20T20:45:59.410Z,12.17
2018-09-20T20:48:30.812Z,11.47
2018-09-20T20:51:02.174Z,9.70
2018-09-20T20:53:33.523Z,10.27
2018-09-20T20:56:04.745Z,9.60
2018-09-20T20:58:36.546Z,11.27
2018-09-20T21:01:07.854Z,8.83
2018-09-20T21:03:38.891Z,7.57
2018-09-20T21:06:10.292Z,7.13
2018-09-20T21:08:42.085Z,10.87
2018-09-20T21:11:13.624Z,9.47
2018-09-20T21:13:44.815Z,9.90
2018-09-20T21:16:16.060Z,8.50
2018-09-20T21:18:47.624Z,9.73
2018-09-20T21:21:19.052Z,9.17
2018-09-20T21:24:20.057Z,9.20
2018-09-20T21:26:51.261Z,8.77
2018-09-20T21:29:22.289Z,9.67
2018-09-20T21:31:53.631Z,13.77
2018-09-20T21:34:24.795Z,9.07
2018-09-20T21:36:56.088Z,10.93
2018-09-20T21:39:27.443Z,8.77
2018-09-20T21:41:58.789Z,11.50
2018-09-20T21:44:30.234Z,11.67
2018-09-20T21:47:01.487Z,10.37
2018-09-20T21:49:32.771Z,12.80
2018-09-20T21:52:03.955Z,9.10
2018-09-20T21:54:35.155Z,10.70
2018-09-20T21:57:07.160Z,12.27
2018-09-20T21:59:38.507Z,11.70
2018-09-20T22:02:09.685Z,9.77
2018-09-20T22:04:40.871Z,8.90
2018-09-20T22:07:11.911Z,10.73
2018-09-20T22:09:43.355Z,11.07
2018-09-20T22:12:14.499Z,12.93
2018-09-20T22:14:45.948Z,9.53
2018-09-20T22:17:17.095Z,11.73
2018-09-20T22:19:48.339Z,11.73
2018-09-20T22:22:19.607Z,12.10
2018-09-20T22:24:50.799Z,10.17
2018-09-20T22:27:21.998Z,10.20
2018-09-20T22:29:53.323Z,15.55
2018-09-20T22:32:24.583Z,14.10
2018-09-20T22:34:55.777Z,12.63
2018-09-20T22:37:26.960Z,11.27
2018-09-20T22:39:57.971Z,11.40
2018-09-20T22:42:29.044Z,11.67
2018-09-20T22:45:00.312Z,12.50
2018-09-20T22:47:31.439Z,11.07
2018-09-20T22:50:02.743Z,9.43
2018-09-20T22:52:34.811Z,7.30
2018-09-20T22:55:06.095Z,10.07
2018-09-20T22:57:37.263Z,12.60
2018-09-20T23:00:08.964Z,8.47
2018-09-20T23:02:39.907Z,8.13
2018-09-20T23:05:11.922Z,11.50
2018-09-20T23:07:43.239Z,10.50
2018-09-20T23:10:14.624Z,9.03
2018-09-20T23:12:46.012Z,12.87
2018-09-20T23:15:17.203Z,9.23
2018-09-20T23:17:48.872Z,11.50
2018-09-20T23:20:20.347Z,10.10
2018-09-20T23:22:51.547Z,10.90
2018-09-20T23:25:22.795Z,12.67
2018-09-20T23:27:54.145Z,10.23
2018-09-20T23:30:25.227Z,8.50
2018-09-20T23:32:56.398Z,12.30
2018-09-20T23:35:27.526Z,9.37
2018-09-20T23:37:58.719Z,7.97
2018-09-20T23:40:29.728Z,11.73
2018-09-20T23:43:00.914Z,9.43
2018-09-20T23:45:32.103Z,10.20
2018-09-20T23:48:03.302Z,10.40
2018-09-20T23:50:34.304Z,9.97
2018-09-20T23:53:05.535Z,8.77
2018-09-20T23:55:36.897Z,12.37
2018-09-20T23:58:08.083Z,12.10
